Time;durP1;ratioP1;P1;durP2;ratioP2;P2;SDS_P1;SDS_P2;PMS_P1;PMS_P2;Temp;Humidity;BMP_temperature;BMP_pressure;BME280_temperature;BME280_humidity;BME280_pressure;Samples;Min_cycle;Max_cycle;Signal;HPM_P1;HPM_P2
2021/05/09 00:01:37;;;;;;;1.40;1.08;;;;;;;;;;5053094;28;20033;-76
2021/05/09 00:04:03;;;;;;;1.10;1.00;;;;;;;;;;5061027;28;20425;-77
2021/05/09 00:06:29;;;;;;;1.45;1.30;;;;;;;;;;5060922;28;20050;-77
2021/05/09 00:08:56;;;;;;;2.10;1.15;;;;;;;;;;5060367;28;20028;-77
2021/05/09 00:11:22;;;;;;;0.80;0.80;;;;;;;;;;5060815;28;20017;-77
2021/05/09 00:13:49;;;;;;;2.65;0.90;;;;;;;;;;5053312;28;20021;-77
2021/05/09 00:16:15;;;;;;;1.10;0.98;;;;;;;;;;5039309;28;20111;-77
2021/05/09 00:18:41;;;;;;;0.70;0.70;;;;;;;;;;5041025;28;20203;-77
2021/05/09 00:21:07;;;;;;;1.02;0.75;;;;;;;;;;5041065;28;20064;-76
2021/05/09 00:23:33;;;;;;;2.88;0.98;;;;;;;;;;5048622;28;20036;-75
2021/05/09 00:26:00;;;;;;;2.15;0.88;;;;;;;;;;5048795;28;20044;-75
2021/05/09 00:28:26;;;;;;;1.45;1.00;;;;;;;;;;5055128;28;20037;-76
2021/05/09 00:30:52;;;;;;;0.85;0.57;;;;;;;;;;5045796;28;20029;-77
2021/05/09 00:33:18;;;;;;;0.70;0.70;;;;;;;;;;5037811;28;20029;-75
2021/05/09 00:35:44;;;;;;;0.85;0.85;;;;;;;;;;5036873;28;20160;-77
2021/05/09 00:38:10;;;;;;;1.02;0.90;;;;;;;;;;5052061;28;20036;-77
2021/05/09 00:40:37;;;;;;;1.15;1.05;;;;;;;;;;5037264;28;20029;-77
2021/05/09 00:43:03;;;;;;;2.17;1.35;;;;;;;;;;5051564;28;20544;-77
2021/05/09 00:45:29;;;;;;;1.13;1.02;;;;;;;;;;5052447;28;20029;-76
2021/05/09 00:47:55;;;;;;;1.67;0.90;;;;;;;;;;5052722;28;20480;-77
2021/05/09 00:50:21;;;;;;;2.15;1.20;;;;;;;;;;5037257;28;20037;-78
2021/05/09 00:52:48;;;;;;;2.25;1.20;;;;;;;;;;5038606;28;20036;-76
2021/05/09 00:55:15;;;;;;;1.00;0.70;;;;;;;;;;5049413;28;20037;-75
2021/05/09 00:57:43;;;;;;;1.00;0.90;;;;;;;;;;5055763;28;20116;-77
2021/05/09 01:00:10;;;;;;;1.42;0.63;;;;;;;;;;5032655;28;20124;-76
2021/05/09 01:02:39;;;;;;;1.33;0.90;;;;;;;;;;5045332;28;20021;-77
2021/05/09 01:05:06;;;;;;;0.70;0.70;;;;;;;;;;5039159;28;20140;-78
2021/05/09 01:07:33;;;;;;;0.65;0.65;;;;;;;;;;5039201;28;20104;-77
2021/05/09 01:10:00;;;;;;;0.85;0.80;;;;;;;;;;5051342;28;20022;-78
2021/05/09 01:12:26;;;;;;;0.85;0.80;;;;;;;;;;5036152;28;20143;-77
2021/05/09 01:14:52;;;;;;;0.75;0.75;;;;;;;;;;5036139;28;20033;-77
2021/05/09 01:17:18;;;;;;;0.80;0.80;;;;;;;;;;5036623;28;20427;-77
2021/05/09 01:19:45;;;;;;;0.80;0.70;;;;;;;;;;5052987;28;20029;-76
2021/05/09 01:22:12;;;;;;;2.20;0.65;;;;;;;;;;5037701;28;20029;-78
2021/05/09 01:24:38;;;;;;;0.63;0.60;;;;;;;;;;5054788;28;20029;-77
2021/05/09 01:27:05;;;;;;;0.90;0.80;;;;;;;;;;5039419;28;20033;-77
2021/05/09 01:29:32;;;;;;;1.08;0.75;;;;;;;;;;5039959;28;20040;-77
2021/05/09 01:31:59;;;;;;;2.33;0.60;;;;;;;;;;5053281;28;20024;-78
2021/05/09 01:34:32;;;;;;;1.50;0.70;;;;;;;;;;5036470;28;20108;-77
2021/05/09 01:36:58;;;;;;;0.30;0.30;;;;;;;;;;5038178;28;20382;-77
2021/05/09 01:39:24;;;;;;;0.50;0.50;;;;;;;;;;5037171;28;20252;-77
2021/05/09 01:41:51;;;;;;;1.23;0.95;;;;;;;;;;5036903;28;20025;-78
2021/05/09 01:44:17;;;;;;;0.50;0.50;;;;;;;;;;5040865;28;20110;-76
2021/05/09 01:46:43;;;;;;;0.95;0.80;;;;;;;;;;5055915;28;20049;-77
2021/05/09 01:49:09;;;;;;;2.78;0.60;;;;;;;;;;5038969;28;20413;-78
2021/05/09 01:51:35;;;;;;;2.83;0.60;;;;;;;;;;5053051;28;20025;-77
2021/05/09 01:54:01;;;;;;;0.70;0.55;;;;;;;;;;5037051;28;20579;-78
2021/05/09 01:56:27;;;;;;;0.80;0.70;;;;;;;;;;5038178;28;20042;-78
2021/05/09 01:58:53;;;;;;;0.65;0.50;;;;;;;;;;5038890;28;20091;-78
2021/05/09 02:01:19;;;;;;;0.43;0.43;;;;;;;;;;5053881;28;20484;-78
2021/05/09 02:03:45;;;;;;;1.33;0.80;;;;;;;;;;5038327;28;20029;-78
2021/05/09 02:06:11;;;;;;;1.05;0.52;;;;;;;;;;5037691;28;20021;-79
2021/05/09 02:08:37;;;;;;;2.05;0.77;;;;;;;;;;5040467;28;20406;-76
2021/05/09 02:11:03;;;;;;;0.85;0.50;;;;;;;;;;5040101;28;20473;-77
2021/05/09 02:13:29;;;;;;;0.60;0.50;;;;;;;;;;5051436;28;20390;-77
2021/05/09 02:15:55;;;;;;;0.88;0.52;;;;;;;;;;5036098;28;20429;-77
2021/05/09 02:18:21;;;;;;;0.57;0.50;;;;;;;;;;5050896;28;20083;-78
2021/05/09 02:20:48;;;;;;;1.58;0.80;;;;;;;;;;5036148;28;20155;-77
2021/05/09 02:23:14;;;;;;;0.63;0.60;;;;;;;;;;5039497;28;20039;-77
2021/05/09 02:25:40;;;;;;;0.90;0.70;;;;;;;;;;5036681;28;20025;-78
2021/05/09 02:28:06;;;;;;;0.60;0.60;;;;;;;;;;5036297;28;20489;-77
2021/05/09 02:30:32;;;;;;;0.77;0.52;;;;;;;;;;5051787;28;20041;-77
2021/05/09 02:32:58;;;;;;;1.55;0.60;;;;;;;;;;5053700;28;20036;-77
2021/05/09 02:35:24;;;;;;;0.75;0.73;;;;;;;;;;5053831;28;20474;-78
2021/05/09 02:37:50;;;;;;;0.80;0.63;;;;;;;;;;5052345;28;20021;-78
2021/05/09 02:40:16;;;;;;;1.13;0.68;;;;;;;;;;5038171;28;20026;-78
2021/05/09 02:42:47;;;;;;;0.40;0.40;;;;;;;;;;5037857;28;20488;-78
2021/05/09 02:45:13;;;;;;;1.35;0.57;;;;;;;;;;5037807;28;20496;-78
2021/05/09 02:47:39;;;;;;;1.17;0.77;;;;;;;;;;5041194;28;20021;-77
2021/05/09 02:50:07;;;;;;;0.90;0.50;;;;;;;;;;5041592;28;20025;-77
2021/05/09 02:52:33;;;;;;;0.47;0.47;;;;;;;;;;5058512;28;20025;-77
2021/05/09 02:54:59;;;;;;;1.25;0.70;;;;;;;;;;5043540;28;20037;-76
2021/05/09 02:57:25;;;;;;;0.73;0.38;;;;;;;;;;5043445;28;20095;-76
2021/05/09 02:59:51;;;;;;;0.65;0.65;;;;;;;;;;5043371;28;20084;-75
2021/05/09 03:02:17;;;;;;;1.25;0.82;;;;;;;;;;5037080;28;20045;-78
2021/05/09 03:04:44;;;;;;;0.50;0.40;;;;;;;;;;5036227;28;20025;-78
2021/05/09 03:07:10;;;;;;;0.73;0.50;;;;;;;;;;5035542;28;20051;-77
2021/05/09 03:09:36;;;;;;;1.10;0.60;;;;;;;;;;5036251;28;20028;-78
2021/05/09 03:12:02;;;;;;;3.35;0.70;;;;;;;;;;5037904;28;20030;-78
2021/05/09 03:14:28;;;;;;;0.80;0.55;;;;;;;;;;5035459;28;20026;-78
2021/05/09 03:16:54;;;;;;;0.35;0.35;;;;;;;;;;5052164;28;20080;-77
2021/05/09 03:19:20;;;;;;;0.68;0.43;;;;;;;;;;5042108;28;20031;-77
2021/05/09 03:21:46;;;;;;;1.55;0.60;;;;;;;;;;5060956;28;20039;-77
2021/05/09 03:24:12;;;;;;;1.13;0.93;;;;;;;;;;5062146;28;20044;-77
2021/05/09 03:26:38;;;;;;;1.13;0.60;;;;;;;;;;5044299;28;20144;-77
2021/05/09 03:29:05;;;;;;;0.75;0.50;;;;;;;;;;5061408;28;20014;-77
2021/05/09 03:31:31;;;;;;;0.35;0.35;;;;;;;;;;5064064;28;20074;-77
2021/05/09 03:33:57;;;;;;;0.88;0.70;;;;;;;;;;5063761;28;20017;-77
2021/05/09 03:36:24;;;;;;;0.93;0.60;;;;;;;;;;5062779;28;20174;-76
2021/05/09 03:38:50;;;;;;;0.95;0.55;;;;;;;;;;5062564;28;20150;-77
2021/05/09 03:41:16;;;;;;;0.65;0.43;;;;;;;;;;5065413;28;20104;-78
2021/05/09 03:43:43;;;;;;;0.73;0.50;;;;;;;;;;5065112;28;20025;-77
2021/05/09 03:46:09;;;;;;;0.40;0.40;;;;;;;;;;5052116;28;20064;-77
2021/05/09 03:48:35;;;;;;;0.90;0.70;;;;;;;;;;5057765;28;20052;-77
2021/05/09 03:51:01;;;;;;;1.38;0.60;;;;;;;;;;5049055;28;20106;-78
2021/05/09 03:53:29;;;;;;;1.27;0.40;;;;;;;;;;5039007;28;20049;-78
2021/05/09 03:55:55;;;;;;;1.10;0.65;;;;;;;;;;5038035;28;20052;-78
2021/05/09 03:58:21;;;;;;;0.77;0.45;;;;;;;;;;5038678;28;20028;-79
2021/05/09 04:00:47;;;;;;;0.30;0.30;;;;;;;;;;5053080;28;20374;-78
2021/05/09 04:03:21;;;;;;;0.65;0.50;;;;;;;;;;5037955;28;20516;-79
2021/05/09 04:05:48;;;;;;;0.70;0.38;;;;;;;;;;5046928;28;20021;-77
2021/05/09 04:08:14;;;;;;;0.77;0.45;;;;;;;;;;5062952;28;20033;-78
2021/05/09 04:10:40;;;;;;;0.63;0.30;;;;;;;;;;5068660;28;20056;-77
2021/05/09 04:13:06;;;;;;;0.73;0.30;;;;;;;;;;5054533;28;20033;-77
2021/05/09 04:15:32;;;;;;;0.65;0.40;;;;;;;;;;5048231;28;20048;-78
2021/05/09 04:17:58;;;;;;;0.20;0.20;;;;;;;;;;5041512;28;20036;-79
2021/05/09 04:20:24;;;;;;;0.82;0.47;;;;;;;;;;5039182;28;20454;-78
2021/05/09 04:22:50;;;;;;;0.57;0.40;;;;;;;;;;5043547;28;20036;-75
2021/05/09 04:25:16;;;;;;;0.30;0.30;;;;;;;;;;5046802;28;20029;-76
2021/05/09 04:27:42;;;;;;;0.80;0.70;;;;;;;;;;5046438;28;20026;-76
2021/05/09 04:30:08;;;;;;;0.88;0.40;;;;;;;;;;5037812;28;20033;-77
2021/05/09 04:32:34;;;;;;;0.43;0.30;;;;;;;;;;5035616;28;20018;-77
2021/05/09 04:35:01;;;;;;;0.52;0.30;;;;;;;;;;5036190;28;20036;-77
2021/05/09 04:37:27;;;;;;;0.50;0.20;;;;;;;;;;5035828;28;20056;-77
2021/05/09 04:39:53;;;;;;;0.80;0.43;;;;;;;;;;5050842;28;20028;-77
2021/05/09 04:42:19;;;;;;;0.40;0.40;;;;;;;;;;5050583;28;20025;-77
2021/05/09 04:44:45;;;;;;;0.50;0.50;;;;;;;;;;5035645;28;20291;-77
2021/05/09 04:47:11;;;;;;;2.30;0.20;;;;;;;;;;5034866;28;20082;-77
2021/05/09 04:49:37;;;;;;;0.25;0.25;;;;;;;;;;5049731;28;20064;-77
2021/05/09 04:52:03;;;;;;;0.30;0.30;;;;;;;;;;5035936;28;20473;-77
2021/05/09 04:54:29;;;;;;;0.40;0.38;;;;;;;;;;5041001;28;20025;-77
2021/05/09 04:56:55;;;;;;;0.47;0.25;;;;;;;;;;5053654;28;20132;-79
2021/05/09 04:59:21;;;;;;;0.30;0.30;;;;;;;;;;5043692;28;20055;-78
2021/05/09 05:01:47;;;;;;;0.65;0.40;;;;;;;;;;5042907;28;20454;-79
2021/05/09 05:04:13;;;;;;;0.95;0.35;;;;;;;;;;5036961;28;20040;-79
2021/05/09 05:06:39;;;;;;;0.60;0.30;;;;;;;;;;5037876;28;20041;-78
2021/05/09 05:09:05;;;;;;;0.98;0.30;;;;;;;;;;5053467;28;20113;-79
2021/05/09 05:11:31;;;;;;;0.50;0.30;;;;;;;;;;5053187;28;20022;-78
2021/05/09 05:13:57;;;;;;;0.38;0.30;;;;;;;;;;5038079;28;20022;-79
2021/05/09 05:16:23;;;;;;;0.40;0.30;;;;;;;;;;5053615;28;20040;-79
2021/05/09 05:18:49;;;;;;;0.38;0.35;;;;;;;;;;5038205;28;20102;-79
2021/05/09 05:21:15;;;;;;;1.10;0.52;;;;;;;;;;5038353;28;20033;-79
2021/05/09 05:23:42;;;;;;;2.47;0.82;;;;;;;;;;5038588;28;20064;-79
2021/05/09 05:26:08;;;;;;;0.63;0.35;;;;;;;;;;5052516;28;20101;-79
2021/05/09 05:28:34;;;;;;;3.35;0.45;;;;;;;;;;5053148;28;20427;-79
2021/05/09 05:31:00;;;;;;;0.60;0.35;;;;;;;;;;5064407;28;20117;-78
2021/05/09 05:33:28;;;;;;;0.30;0.30;;;;;;;;;;5058389;28;20033;-80
2021/05/09 05:35:55;;;;;;;0.30;0.30;;;;;;;;;;5059054;28;20563;-80
2021/05/09 05:38:21;;;;;;;0.35;0.30;;;;;;;;;;5039231;28;20029;-78
2021/05/09 05:40:57;;;;;;;0.85;0.30;;;;;;;;;;5039930;28;20088;-78
2021/05/09 05:43:24;;;;;;;0.30;0.30;;;;;;;;;;5054862;28;20108;-79
2021/05/09 05:45:53;;;;;;;0.20;0.20;;;;;;;;;;5038244;28;20045;-78
2021/05/09 05:48:20;;;;;;;0.35;0.22;;;;;;;;;;5038193;28;20022;-79
2021/05/09 05:50:46;;;;;;;0.85;0.40;;;;;;;;;;5041207;28;20037;-79
2021/05/09 05:53:12;;;;;;;0.88;0.40;;;;;;;;;;5036896;28;20100;-79
2021/05/09 05:55:38;;;;;;;0.73;0.47;;;;;;;;;;5037206;28;20485;-79
2021/05/09 05:58:05;;;;;;;0.60;0.25;;;;;;;;;;5036779;28;20257;-80
2021/05/09 06:00:31;;;;;;;0.30;0.30;;;;;;;;;;5046232;28;20071;-76
2021/05/09 06:02:57;;;;;;;0.40;0.40;;;;;;;;;;5054443;28;20028;-77
2021/05/09 06:05:23;;;;;;;0.30;0.30;;;;;;;;;;5058005;28;20036;-80
2021/05/09 06:07:49;;;;;;;1.60;0.40;;;;;;;;;;5052341;28;20025;-76
2021/05/09 06:10:15;;;;;;;0.75;0.40;;;;;;;;;;5041505;28;20025;-79
2021/05/09 06:12:41;;;;;;;0.32;0.32;;;;;;;;;;5040859;28;20017;-79
2021/05/09 06:15:07;;;;;;;0.40;0.40;;;;;;;;;;5039819;28;20022;-78
2021/05/09 06:17:34;;;;;;;0.65;0.50;;;;;;;;;;5037219;28;20075;-79
2021/05/09 06:20:00;;;;;;;0.40;0.40;;;;;;;;;;5040856;28;20101;-77
2021/05/09 06:22:26;;;;;;;0.30;0.30;;;;;;;;;;5038930;28;20029;-78
2021/05/09 06:24:52;;;;;;;0.40;0.40;;;;;;;;;;5034606;28;20041;-78
2021/05/09 06:27:18;;;;;;;0.40;0.40;;;;;;;;;;5038203;28;20398;-79
2021/05/09 06:29:44;;;;;;;0.47;0.47;;;;;;;;;;5043423;28;20476;-79
2021/05/09 06:32:10;;;;;;;1.48;0.60;;;;;;;;;;5047112;28;20382;-79
2021/05/09 06:34:37;;;;;;;0.45;0.45;;;;;;;;;;5036528;28;20025;-79
2021/05/09 06:37:03;;;;;;;0.40;0.40;;;;;;;;;;5042073;28;20170;-77
2021/05/09 06:39:30;;;;;;;0.30;0.30;;;;;;;;;;5041555;28;20014;-79
2021/05/09 06:41:58;;;;;;;0.45;0.45;;;;;;;;;;5056415;28;20101;-76
2021/05/09 06:44:28;;;;;;;0.30;0.30;;;;;;;;;;5042059;28;20017;-80
2021/05/09 06:46:54;;;;;;;0.30;0.30;;;;;;;;;;5036608;28;20028;-80
2021/05/09 06:49:20;;;;;;;0.20;0.20;;;;;;;;;;5035901;28;20026;-80
2021/05/09 06:51:46;;;;;;;0.45;0.40;;;;;;;;;;5034155;28;20389;-80
2021/05/09 06:54:12;;;;;;;0.30;0.30;;;;;;;;;;5035220;28;20084;-80
2021/05/09 06:56:38;;;;;;;0.30;0.30;;;;;;;;;;5039629;28;20182;-81
2021/05/09 06:59:04;;;;;;;0.30;0.30;;;;;;;;;;5047861;28;20071;-83
2021/05/09 07:01:30;;;;;;;0.35;0.35;;;;;;;;;;5065545;28;20032;-81
2021/05/09 07:03:56;;;;;;;0.75;0.32;;;;;;;;;;5078499;28;20082;-81
2021/05/09 07:06:22;;;;;;;0.30;0.30;;;;;;;;;;5061185;28;20043;-77
2021/05/09 07:08:49;;;;;;;1.13;0.77;;;;;;;;;;5059032;28;20030;-79
2021/05/09 07:11:15;;;;;;;0.47;0.47;;;;;;;;;;5049691;28;20033;-80
2021/05/09 07:13:41;;;;;;;0.50;0.50;;;;;;;;;;5046681;28;20029;-79
2021/05/09 07:16:07;;;;;;;0.22;0.22;;;;;;;;;;5043948;28;20032;-78
2021/05/09 07:18:34;;;;;;;0.30;0.30;;;;;;;;;;5044597;28;20080;-81
2021/05/09 07:21:02;;;;;;;0.30;0.30;;;;;;;;;;5044948;28;20028;-81
2021/05/09 07:23:31;;;;;;;0.65;0.40;;;;;;;;;;5047266;28;20505;-82
2021/05/09 07:25:57;;;;;;;0.65;0.40;;;;;;;;;;5047432;28;20041;-79
2021/05/09 07:28:23;;;;;;;0.77;0.65;;;;;;;;;;5047862;28;20032;-80
2021/05/09 07:30:49;;;;;;;0.63;0.63;;;;;;;;;;5057138;28;20104;-79
2021/05/09 07:33:16;;;;;;;0.57;0.30;;;;;;;;;;5051300;28;20060;-78
2021/05/09 07:35:43;;;;;;;0.30;0.30;;;;;;;;;;5044567;28;20508;-81
2021/05/09 07:38:10;;;;;;;0.40;0.38;;;;;;;;;;5059614;28;20474;-77
2021/05/09 07:40:36;;;;;;;0.40;0.40;;;;;;;;;;5056120;28;20045;-82
2021/05/09 07:43:03;;;;;;;0.75;0.57;;;;;;;;;;5061256;28;20025;-82
2021/05/09 07:45:29;;;;;;;0.68;0.50;;;;;;;;;;5044230;28;20035;-81
2021/05/09 07:47:55;;;;;;;0.68;0.50;;;;;;;;;;5043672;28;20087;-82
2021/05/09 07:50:21;;;;;;;0.47;0.47;;;;;;;;;;5043595;28;20053;-84
2021/05/09 07:52:49;;;;;;;0.30;0.30;;;;;;;;;;5044281;28;20026;-82
2021/05/09 07:55:15;;;;;;;2.35;0.68;;;;;;;;;;5043715;28;20044;-81
2021/05/09 07:57:42;;;;;;;0.50;0.50;;;;;;;;;;5049052;28;20025;-79
2021/05/09 08:00:11;;;;;;;0.73;0.50;;;;;;;;;;5057777;28;20398;-80
2021/05/09 08:02:37;;;;;;;0.35;0.35;;;;;;;;;;5055671;28;20390;-83
2021/05/09 08:05:04;;;;;;;0.55;0.50;;;;;;;;;;5051830;28;20072;-82
2021/05/09 08:07:30;;;;;;;0.50;0.43;;;;;;;;;;5048609;28;20037;-82
2021/05/09 08:09:56;;;;;;;0.50;0.50;;;;;;;;;;5065881;28;20059;-82
2021/05/09 08:12:22;;;;;;;0.50;0.50;;;;;;;;;;5065822;28;20112;-81
2021/05/09 08:14:49;;;;;;;0.50;0.45;;;;;;;;;;5066242;28;20021;-80
2021/05/09 08:17:15;;;;;;;0.55;0.50;;;;;;;;;;5049293;28;20036;-80
2021/05/09 08:19:41;;;;;;;0.47;0.47;;;;;;;;;;5071865;28;20033;-80
2021/05/09 08:22:07;;;;;;;2.08;0.60;;;;;;;;;;5057721;28;20036;-79
2021/05/09 08:24:33;;;;;;;0.70;0.52;;;;;;;;;;5073308;28;20032;-79
2021/05/09 08:26:59;;;;;;;0.52;0.52;;;;;;;;;;5056158;28;20064;-82
2021/05/09 08:29:25;;;;;;;0.98;0.43;;;;;;;;;;5057678;28;20017;-79
2021/05/09 08:31:52;;;;;;;1.00;0.60;;;;;;;;;;5076643;28;20116;-82
2021/05/09 08:34:18;;;;;;;0.60;0.50;;;;;;;;;;5052182;28;20045;-79
2021/05/09 08:36:44;;;;;;;0.88;0.55;;;;;;;;;;5045690;28;20033;-81
2021/05/09 08:39:10;;;;;;;0.77;0.50;;;;;;;;;;5044644;28;20021;-82
2021/05/09 08:41:41;;;;;;;0.40;0.40;;;;;;;;;;5043154;28;20033;-82
2021/05/09 08:44:10;;;;;;;0.60;0.60;;;;;;;;;;5043541;28;20049;-81
2021/05/09 08:46:37;;;;;;;1.20;0.70;;;;;;;;;;5042374;28;20029;-82
2021/05/09 08:49:04;;;;;;;1.17;0.63;;;;;;;;;;5043356;28;20025;-81
2021/05/09 08:51:31;;;;;;;0.50;0.50;;;;;;;;;;5042087;28;20044;-81
2021/05/09 08:53:58;;;;;;;0.90;0.60;;;;;;;;;;5043205;28;20038;-82
2021/05/09 08:56:25;;;;;;;0.50;0.50;;;;;;;;;;5042623;28;20163;-79
2021/05/09 08:58:51;;;;;;;0.50;0.50;;;;;;;;;;5045266;28;20021;-80
2021/05/09 09:01:17;;;;;;;0.40;0.40;;;;;;;;;;5048342;28;20036;-80
2021/05/09 09:03:44;;;;;;;1.08;0.63;;;;;;;;;;5044819;28;20025;-81
2021/05/09 09:06:15;;;;;;;0.50;0.50;;;;;;;;;;5045483;28;20312;-82
2021/05/09 09:08:53;;;;;;;0.70;0.60;;;;;;;;;;5048132;28;20026;-81
2021/05/09 09:11:27;;;;;;;0.90;0.52;;;;;;;;;;5036705;28;20459;-80
2021/05/09 09:14:09;;;;;;;1.67;0.65;;;;;;;;;;5037126;28;20505;-79
2021/05/09 09:16:36;;;;;;;0.90;0.50;;;;;;;;;;5037151;28;20175;-79
2021/05/09 09:19:14;;;;;;;0.45;0.38;;;;;;;;;;5036669;28;20025;-79
2021/05/09 09:21:40;;;;;;;0.60;0.60;;;;;;;;;;5036226;28;20040;-80
2021/05/09 09:24:07;;;;;;;0.73;0.65;;;;;;;;;;5037222;28;20021;-80
2021/05/09 09:26:41;;;;;;;1.63;0.57;;;;;;;;;;5037835;28;20022;-80
2021/05/09 09:29:24;;;;;;;2.25;0.73;;;;;;;;;;5040820;28;20017;-80
2021/05/09 09:31:53;;;;;;;0.63;0.47;;;;;;;;;;5057273;28;20028;-80
2021/05/09 09:34:19;;;;;;;0.50;0.50;;;;;;;;;;5065117;28;20032;-80
2021/05/09 09:36:46;;;;;;;0.52;0.50;;;;;;;;;;5066915;28;20048;-79
2021/05/09 09:39:12;;;;;;;1.20;0.73;;;;;;;;;;5042343;28;20029;-80
2021/05/09 09:41:44;;;;;;;0.70;0.70;;;;;;;;;;5038317;28;20032;-80
2021/05/09 09:44:15;;;;;;;0.85;0.75;;;;;;;;;;5038143;28;20421;-80
2021/05/09 09:46:50;;;;;;;1.10;1.08;;;;;;;;;;5037460;28;20109;-79
2021/05/09 09:49:23;;;;;;;1.60;0.68;;;;;;;;;;5037457;28;20017;-79
2021/05/09 09:52:02;;;;;;;0.50;0.50;;;;;;;;;;5038497;28;20089;-81
2021/05/09 09:54:34;;;;;;;1.08;0.68;;;;;;;;;;5039931;28;20025;-81
2021/05/09 09:57:01;;;;;;;2.40;0.70;;;;;;;;;;5052188;28;20033;-79
2021/05/09 09:59:27;;;;;;;1.38;0.73;;;;;;;;;;5040882;28;20021;-79
2021/05/09 10:01:53;;;;;;;1.02;0.52;;;;;;;;;;5052767;28;20361;-80
2021/05/09 10:04:20;;;;;;;0.50;0.50;;;;;;;;;;5048544;28;20048;-79
2021/05/09 10:06:46;;;;;;;2.58;0.70;;;;;;;;;;5036156;28;20044;-79
2021/05/09 10:09:12;;;;;;;0.60;0.60;;;;;;;;;;5035475;28;20025;-81
2021/05/09 10:11:39;;;;;;;0.95;0.60;;;;;;;;;;5036001;28;20367;-81
2021/05/09 10:14:08;;;;;;;0.93;0.55;;;;;;;;;;5036335;28;20097;-80
2021/05/09 10:16:41;;;;;;;0.65;0.50;;;;;;;;;;5036079;28;20064;-79
2021/05/09 10:19:11;;;;;;;1.77;0.65;;;;;;;;;;5051687;28;20022;-79
2021/05/09 10:21:39;;;;;;;1.58;0.90;;;;;;;;;;5054095;28;20018;-80
2021/05/09 10:24:09;;;;;;;0.60;0.60;;;;;;;;;;5053562;28;20032;-81
2021/05/09 10:26:45;;;;;;;0.75;0.60;;;;;;;;;;5045013;28;20036;-81
2021/05/09 10:29:30;;;;;;;0.45;0.45;;;;;;;;;;5045010;28;20562;-81
2021/05/09 10:31:56;;;;;;;0.60;0.60;;;;;;;;;;5045837;28;20089;-81
2021/05/09 10:34:41;;;;;;;2.17;0.60;;;;;;;;;;5041099;28;20056;-80
2021/05/09 10:37:07;;;;;;;0.70;0.70;;;;;;;;;;5037446;28;20025;-81
2021/05/09 10:39:33;;;;;;;0.57;0.57;;;;;;;;;;5035618;28;20088;-81
2021/05/09 10:41:59;;;;;;;0.52;0.50;;;;;;;;;;5035950;28;20030;-81
2021/05/09 10:44:37;;;;;;;0.52;0.52;;;;;;;;;;5053008;28;20478;-80
2021/05/09 10:47:05;;;;;;;1.00;0.70;;;;;;;;;;5042008;28;20064;-82
2021/05/09 10:49:31;;;;;;;0.90;0.70;;;;;;;;;;5021311;28;20506;-81
2021/05/09 10:51:57;;;;;;;0.60;0.60;;;;;;;;;;5034123;28;20029;-82
2021/05/09 10:54:26;;;;;;;0.68;0.65;;;;;;;;;;5058098;28;20040;-81
2021/05/09 10:56:53;;;;;;;0.40;0.40;;;;;;;;;;5041583;28;20025;-81
2021/05/09 10:59:20;;;;;;;0.65;0.50;;;;;;;;;;5076098;22;20045;-80
2021/05/09 11:01:46;;;;;;;0.52;0.52;;;;;;;;;;5067599;28;20021;-82
2021/05/09 11:04:14;;;;;;;1.00;0.60;;;;;;;;;;5071310;28;20025;-79
2021/05/09 11:06:40;;;;;;;1.95;0.57;;;;;;;;;;5060740;28;20037;-80
2021/05/09 11:09:07;;;;;;;0.50;0.50;;;;;;;;;;5060989;28;20043;-81
2021/05/09 11:11:35;;;;;;;0.55;0.45;;;;;;;;;;5061985;28;20037;-82
2021/05/09 11:16:30;;;;;;;0.73;0.57;;;;;;;;;;5059860;28;20150;-77
2021/05/09 11:18:56;;;;;;;0.82;0.57;;;;;;;;;;5056865;28;20574;-80
2021/05/09 11:21:23;;;;;;;0.85;0.63;;;;;;;;;;5056351;28;20339;-80
2021/05/09 11:23:49;;;;;;;0.60;0.60;;;;;;;;;;5056110;28;20017;-78
2021/05/09 11:26:22;;;;;;;0.80;0.52;;;;;;;;;;5056862;28;20032;-80
2021/05/09 11:29:23;;;;;;;1.27;0.57;;;;;;;;;;5059509;28;20101;-80
2021/05/09 11:31:54;;;;;;;2.33;0.80;;;;;;;;;;5014052;28;20038;-80
2021/05/09 11:34:21;;;;;;;0.88;0.70;;;;;;;;;;5054351;28;20047;-80
2021/05/09 11:36:49;;;;;;;0.75;0.75;;;;;;;;;;5058595;28;20029;-76
2021/05/09 11:39:19;;;;;;;0.50;0.50;;;;;;;;;;5057050;28;20082;-78
2021/05/09 11:41:54;;;;;;;2.00;0.52;;;;;;;;;;5061997;28;20029;-77
2021/05/09 11:44:21;;;;;;;0.70;0.70;;;;;;;;;;5062805;28;20466;-78
2021/05/09 11:46:47;;;;;;;0.40;0.40;;;;;;;;;;5061640;28;20531;-76
2021/05/09 11:49:18;;;;;;;0.70;0.70;;;;;;;;;;5061791;28;20048;-79
2021/05/09 11:51:48;;;;;;;0.88;0.60;;;;;;;;;;5063745;28;20722;-80
2021/05/09 11:54:15;;;;;;;1.63;0.98;;;;;;;;;;5059899;28;20051;-80
2021/05/09 11:57:04;;;;;;;0.68;0.68;;;;;;;;;;5062568;28;20028;-78
2021/05/09 11:59:43;;;;;;;0.40;0.40;;;;;;;;;;5060461;28;20064;-79
2021/05/09 12:02:30;;;;;;;0.73;0.70;;;;;;;;;;5061115;28;20484;-77
2021/05/09 12:05:12;;;;;;;0.50;0.50;;;;;;;;;;5061418;28;20067;-79
2021/05/09 12:07:51;;;;;;;1.25;0.60;;;;;;;;;;5043101;28;20029;-80
2021/05/09 12:10:30;;;;;;;2.17;0.70;;;;;;;;;;5051259;28;20032;-80
2021/05/09 12:12:57;;;;;;;0.60;0.60;;;;;;;;;;5062699;28;20417;-78
2021/05/09 12:15:23;;;;;;;0.47;0.40;;;;;;;;;;5064419;28;20025;-78
2021/05/09 12:17:56;;;;;;;0.50;0.50;;;;;;;;;;5063227;28;20029;-79
2021/05/09 12:20:36;;;;;;;1.00;0.70;;;;;;;;;;5067546;28;20013;-79
2021/05/09 12:23:04;;;;;;;0.65;0.65;;;;;;;;;;5065390;28;20025;-80
2021/05/09 12:25:30;;;;;;;2.10;0.68;;;;;;;;;;5065438;28;20397;-79
2021/05/09 12:27:56;;;;;;;0.98;0.60;;;;;;;;;;5064789;28;20029;-79
2021/05/09 12:30:22;;;;;;;0.60;0.60;;;;;;;;;;5064842;28;20036;-79
2021/05/09 12:32:48;;;;;;;2.38;0.50;;;;;;;;;;5064909;28;20087;-77
2021/05/09 12:35:15;;;;;;;1.23;0.60;;;;;;;;;;5067677;28;20028;-80
2021/05/09 12:37:41;;;;;;;0.60;0.60;;;;;;;;;;5064696;28;20052;-78
2021/05/09 12:40:14;;;;;;;0.57;0.57;;;;;;;;;;5060996;28;20047;-80
2021/05/09 12:43:07;;;;;;;0.50;0.45;;;;;;;;;;5060654;28;20025;-77
2021/05/09 12:45:35;;;;;;;0.63;0.63;;;;;;;;;;5059524;28;20041;-78
2021/05/09 12:48:05;;;;;;;1.05;0.40;;;;;;;;;;5061052;28;20029;-80
2021/05/09 12:50:48;;;;;;;0.50;0.50;;;;;;;;;;5061084;28;20135;-77
2021/05/09 12:53:15;;;;;;;0.50;0.50;;;;;;;;;;5059075;28;20060;-77
2021/05/09 12:55:41;;;;;;;0.35;0.35;;;;;;;;;;5059967;28;20029;-78
2021/05/09 12:58:12;;;;;;;0.60;0.60;;;;;;;;;;5059233;28;20033;-79
2021/05/09 13:00:38;;;;;;;0.85;0.60;;;;;;;;;;5063427;28;20073;-81
2021/05/09 13:03:05;;;;;;;0.70;0.70;;;;;;;;;;5059758;28;20025;-81
2021/05/09 13:05:31;;;;;;;0.90;0.90;;;;;;;;;;5060056;28;20436;-83
2021/05/09 13:07:57;;;;;;;0.90;0.70;;;;;;;;;;5059548;28;20377;-77
2021/05/09 13:10:25;;;;;;;0.77;0.60;;;;;;;;;;5062811;28;20077;-78
2021/05/09 13:12:53;;;;;;;0.88;0.68;;;;;;;;;;5060228;28;20096;-81
2021/05/09 13:15:20;;;;;;;0.60;0.60;;;;;;;;;;5063353;28;20021;-78
2021/05/09 13:17:46;;;;;;;0.40;0.40;;;;;;;;;;5064424;28;20091;-79
2021/05/09 13:20:13;;;;;;;0.73;0.73;;;;;;;;;;5061288;28;20440;-80
2021/05/09 13:22:39;;;;;;;0.52;0.50;;;;;;;;;;5062450;28;20087;-77
2021/05/09 13:25:06;;;;;;;0.55;0.50;;;;;;;;;;5073444;28;20040;-77
2021/05/09 13:27:32;;;;;;;0.65;0.57;;;;;;;;;;5073671;28;20044;-77
2021/05/09 13:30:04;;;;;;;0.68;0.63;;;;;;;;;;5072892;28;20051;-78
2021/05/09 13:32:30;;;;;;;;;;;;;;;;;;5073017;28;20029;-79
2021/05/09 13:34:56;;;;;;;0.63;0.50;;;;;;;;;;5062485;28;20345;-80
2021/05/09 13:37:22;;;;;;;1.88;1.38;;;;;;;;;;5060950;28;20025;-77
2021/05/09 13:39:49;;;;;;;0.77;0.50;;;;;;;;;;5066090;28;20060;-81
2021/05/09 13:42:15;;;;;;;0.57;0.50;;;;;;;;;;5067100;28;20100;-78
2021/05/09 13:44:41;;;;;;;0.47;0.40;;;;;;;;;;5070160;28;20021;-81
2021/05/09 13:47:07;;;;;;;0.98;0.70;;;;;;;;;;5066820;28;20025;-80
2021/05/09 13:49:33;;;;;;;1.58;0.60;;;;;;;;;;5062863;28;20113;-81
2021/05/09 13:52:00;;;;;;;0.63;0.43;;;;;;;;;;5061679;28;20139;-80
2021/05/09 13:54:26;;;;;;;0.63;0.63;;;;;;;;;;5056629;28;20116;-82
2021/05/09 13:56:52;;;;;;;0.47;0.47;;;;;;;;;;5057998;28;20488;-78
2021/05/09 13:59:19;;;;;;;0.77;0.40;;;;;;;;;;5056932;28;20017;-80
2021/05/09 14:01:45;;;;;;;0.85;0.60;;;;;;;;;;5058392;28;20028;-78
2021/05/09 14:04:11;;;;;;;0.60;0.60;;;;;;;;;;5060552;28;20021;-82
2021/05/09 14:06:38;;;;;;;1.05;0.45;;;;;;;;;;5062704;28;20036;-79
2021/05/09 14:09:05;;;;;;;0.40;0.40;;;;;;;;;;5059346;28;20041;-78
2021/05/09 14:11:31;;;;;;;1.63;0.63;;;;;;;;;;5056850;28;20028;-80
2021/05/09 14:13:57;;;;;;;0.95;0.60;;;;;;;;;;5059333;28;20029;-79
2021/05/09 14:16:24;;;;;;;0.75;0.63;;;;;;;;;;5060620;28;20054;-80
2021/05/09 14:18:52;;;;;;;0.85;0.60;;;;;;;;;;5058172;28;20025;-80
2021/05/09 14:21:18;;;;;;;1.75;1.00;;;;;;;;;;5070099;28;20028;-80
2021/05/09 14:23:44;;;;;;;0.60;0.60;;;;;;;;;;5058903;28;20039;-81
2021/05/09 14:26:10;;;;;;;2.17;0.70;;;;;;;;;;5057385;28;20188;-77
2021/05/09 14:28:36;;;;;;;0.47;0.47;;;;;;;;;;5055549;28;20083;-79
2021/05/09 14:31:02;;;;;;;1.98;0.70;;;;;;;;;;5058509;28;20032;-77
2021/05/09 14:33:28;;;;;;;0.60;0.60;;;;;;;;;;5058226;28;20025;-78
2021/05/09 14:35:54;;;;;;;0.73;0.73;;;;;;;;;;5061278;28;20047;-78
2021/05/09 14:38:20;;;;;;;2.40;0.90;;;;;;;;;;5060622;28;20028;-79
2021/05/09 14:40:46;;;;;;;1.92;0.60;;;;;;;;;;5056045;28;20493;-79
2021/05/09 14:43:12;;;;;;;0.82;0.70;;;;;;;;;;5056508;28;20047;-80
2021/05/09 14:45:39;;;;;;;2.33;1.05;;;;;;;;;;5056783;28;20040;-80
2021/05/09 14:48:05;;;;;;;0.95;0.70;;;;;;;;;;5055414;28;20022;-79